createdAt,value
2023-05-06T00:00:33.481Z,6.2357
2023-05-06T00:01:41.448Z,5.4000
2023-05-06T00:02:49.678Z,5.9143
2023-05-06T00:03:57.838Z,6.1643
2023-05-06T00:05:05.624Z,5.6857
2023-05-06T00:06:13.797Z,5.5786
2023-05-06T00:07:21.991Z,6.9857
2023-05-06T00:08:29.857Z,7.2571
2023-05-06T00:09:37.998Z,6.5714
2023-05-06T00:10:45.888Z,5.1357
2023-05-06T00:11:54.084Z,5.4714
2023-05-06T00:13:02.222Z,6.9357
2023-05-06T00:14:10.190Z,5.7429
2023-05-06T00:15:18.364Z,5.7643
2023-05-06T00:16:26.352Z,6.5857
2023-05-06T00:17:34.400Z,5.9214
2023-05-06T00:18:42.512Z,4.3357
2023-05-06T00:19:50.480Z,5.7857
2023-05-06T00:20:58.393Z,4.8214
2023-05-06T00:22:06.497Z,5.4357
2023-05-06T00:23:14.642Z,4.7500
2023-05-06T00:24:22.734Z,6.0071
2023-05-06T00:25:30.717Z,6.4857
2023-05-06T00:26:38.703Z,5.1429
2023-05-06T00:27:46.921Z,6.7643
2023-05-06T00:28:54.939Z,6.1214
2023-05-06T00:30:02.965Z,6.1500
2023-05-06T00:31:11.240Z,5.9643
2023-05-06T00:32:19.177Z,5.6000
2023-05-06T00:33:27.031Z,5.1929
2023-05-06T00:34:35.277Z,4.7143
2023-05-06T00:35:43.272Z,4.6929
2023-05-06T00:36:51.460Z,5.9071
2023-05-06T00:37:59.513Z,5.6429
2023-05-06T00:39:07.489Z,3.6000
2023-05-06T00:40:15.513Z,6.0429
2023-05-06T00:41:23.602Z,4.2143
2023-05-06T00:42:31.685Z,5.3571
2023-05-06T00:43:39.691Z,4.7643
2023-05-06T00:44:47.609Z,4.3571
2023-05-06T00:45:55.993Z,5.2571
2023-05-06T00:47:03.819Z,4.5071
2023-05-06T00:48:11.991Z,4.6214
2023-05-06T00:49:19.834Z,3.9786
2023-05-06T00:50:27.992Z,3.2643
2023-05-06T00:51:36.081Z,5.1357
2023-05-06T00:52:44.212Z,4.5286
2023-05-06T00:53:52.276Z,6.0214
2023-05-06T00:55:00.315Z,5.3214
2023-05-06T00:56:08.198Z,5.4714
2023-05-06T00:57:16.523Z,4.6214
2023-05-06T00:58:24.506Z,4.9500
2023-05-06T00:59:32.472Z,4.1143
2023-05-06T01:00:40.514Z,4.7786
2023-05-06T01:01:48.598Z,4.4714
2023-05-06T01:02:56.907Z,4.3643
2023-05-06T01:04:04.754Z,6.2429
2023-05-06T01:05:12.812Z,4.7571
2023-05-06T01:06:20.999Z,5.7143
2023-05-06T01:07:28.883Z,4.1786
2023-05-06T01:08:36.980Z,5.3429
2023-05-06T01:09:44.881Z,4.4714
2023-05-06T01:10:53.064Z,4.9000
2023-05-06T01:12:01.131Z,4.6357
2023-05-06T01:13:09.335Z,4.0857
2023-05-06T01:14:17.212Z,4.8357
2023-05-06T01:15:25.262Z,3.7000
2023-05-06T01:16:33.384Z,3.7286
2023-05-06T01:17:41.545Z,5.7071
2023-05-06T01:18:49.506Z,4.4929
2023-05-06T01:19:57.500Z,3.3500
2023-05-06T01:21:05.562Z,4.5643
2023-05-06T01:22:13.786Z,4.1500
2023-05-06T01:23:21.835Z,4.8214
2023-05-06T01:24:29.763Z,3.5571
2023-05-06T01:25:37.754Z,3.9643
2023-05-06T01:26:45.838Z,4.8214
2023-05-06T01:27:53.898Z,2.9071
2023-05-06T01:29:02.049Z,4.2500
2023-05-06T01:30:10.010Z,3.8500
2023-05-06T01:31:18.105Z,4.3929
2023-05-06T01:32:26.010Z,4.2571
2023-05-06T01:33:34.293Z,4.3500
2023-05-06T01:34:42.393Z,4.1857
2023-05-06T01:35:50.284Z,4.9071
2023-05-06T01:36:58.471Z,4.5143
2023-05-06T01:38:06.438Z,5.3786
2023-05-06T01:39:14.520Z,4.5143
2023-05-06T01:40:22.602Z,3.7500
2023-05-06T01:41:30.614Z,4.8214
2023-05-06T01:42:38.806Z,3.7786
2023-05-06T01:43:46.719Z,4.5000
2023-05-06T01:44:54.608Z,4.9357
2023-05-06T01:46:02.814Z,4.4357
2023-05-06T01:47:11.006Z,4.2000
2023-05-06T01:48:19.015Z,3.7643
2023-05-06T01:49:27.051Z,3.3214
2023-05-06T01:50:34.928Z,3.2143
2023-05-06T01:51:43.447Z,5.2000
2023-05-06T01:52:51.104Z,4.9429
2023-05-06T01:53:59.252Z,3.6500
2023-05-06T01:55:07.471Z,2.9714
2023-05-06T01:56:15.165Z,3.4071
2023-05-06T01:57:23.371Z,3.2857
2023-05-06T01:58:31.560Z,3.3500
2023-05-06T01:59:39.534Z,3.7143
2023-05-06T02:00:47.497Z,4.3286
2023-05-06T02:01:55.775Z,3.0286
2023-05-06T02:03:03.695Z,3.7286
2023-05-06T02:04:11.827Z,3.3500
2023-05-06T02:05:19.732Z,3.7714
2023-05-06T02:06:27.788Z,3.1143
2023-05-06T02:07:35.942Z,4.2286
2023-05-06T02:08:43.960Z,4.1214
2023-05-06T02:09:51.840Z,5.0714
2023-05-06T02:11:00.429Z,4.8000
2023-05-06T02:12:08.078Z,3.2357
2023-05-06T02:13:16.197Z,4.0714
2023-05-06T02:14:24.324Z,5.6643
2023-05-06T02:15:32.182Z,4.4071
2023-05-06T02:16:40.422Z,3.7786
2023-05-06T02:17:48.472Z,3.6357
2023-05-06T02:18:56.362Z,3.7500
2023-05-06T02:20:04.549Z,4.2286
2023-05-06T02:21:12.732Z,4.1929
2023-05-06T02:22:20.808Z,4.9857
2023-05-06T02:23:28.766Z,4.8643
2023-05-06T02:24:36.734Z,3.7143
2023-05-06T02:25:44.851Z,3.3286
2023-05-06T02:26:52.753Z,3.4571
2023-05-06T02:28:00.930Z,2.9714
2023-05-06T02:29:09.021Z,5.0429
2023-05-06T02:30:17.210Z,3.6286
2023-05-06T02:31:25.141Z,4.4786
2023-05-06T02:32:33.026Z,3.8857
2023-05-06T02:33:41.301Z,3.7571
2023-05-06T02:34:49.291Z,3.8071
2023-05-06T02:35:57.549Z,3.0357
2023-05-06T02:37:05.363Z,3.8357
2023-05-06T02:38:13.431Z,3.6714
2023-05-06T02:39:21.544Z,4.5286
2023-05-06T02:40:29.621Z,3.8286
2023-05-06T02:41:37.575Z,5.9571
2023-05-06T02:42:45.656Z,3.0357
2023-05-06T02:43:53.717Z,4.7000
2023-05-06T02:45:01.797Z,4.6643
2023-05-06T02:46:09.885Z,3.8000
2023-05-06T02:47:17.856Z,3.0643
2023-05-06T02:48:25.905Z,5.1071
2023-05-06T02:49:33.929Z,5.5286
2023-05-06T02:50:41.834Z,4.2000
2023-05-06T02:51:50.194Z,4.5143
2023-05-06T02:52:58.111Z,4.2500
2023-05-06T02:54:06.157Z,4.6000
2023-05-06T02:55:14.422Z,4.9429
2023-05-06T02:56:22.123Z,5.5786
2023-05-06T02:57:30.324Z,4.8286
2023-05-06T02:58:38.329Z,4.2214
2023-05-06T02:59:46.429Z,4.1500
2023-05-06T03:00:54.639Z,5.0071
2023-05-06T03:02:02.489Z,4.9429
2023-05-06T03:03:10.677Z,4.9714
2023-05-06T03:04:18.675Z,3.5071
2023-05-06T03:05:26.698Z,5.1500
2023-05-06T03:06:34.694Z,3.9500
2023-05-06T03:07:42.644Z,4.0143
2023-05-06T03:08:50.849Z,4.6143
2023-05-06T03:09:58.754Z,4.6286
2023-05-06T03:11:08.239Z,4.4429
2023-05-06T03:12:14.981Z,4.9571
2023-05-06T03:13:23.009Z,4.6786
2023-05-06T03:14:31.101Z,4.5214
2023-05-06T03:15:39.028Z,6.4357
2023-05-06T03:16:47.393Z,4.1214
2023-05-06T03:17:55.332Z,4.1500
2023-05-06T03:19:03.216Z,5.6786
2023-05-06T03:20:11.481Z,4.1857
2023-05-06T03:21:19.485Z,5.9429
2023-05-06T03:22:27.729Z,4.1929
2023-05-06T03:23:35.617Z,3.9000
2023-05-06T03:24:43.586Z,4.0143
2023-05-06T03:25:51.669Z,3.9429
2023-05-06T03:26:59.968Z,5.2500
2023-05-06T03:28:07.808Z,5.2286
2023-05-06T03:29:15.903Z,4.6929
2023-05-06T03:30:23.778Z,3.2500
2023-05-06T03:31:31.963Z,4.3857
2023-05-06T03:32:40.011Z,4.4857
2023-05-06T03:33:48.007Z,4.9071
2023-05-06T03:34:56.155Z,3.7357
2023-05-06T03:36:04.012Z,3.6071
2023-05-06T03:37:12.307Z,3.8857
2023-05-06T03:38:20.209Z,4.3143
2023-05-06T03:39:28.417Z,4.2000
2023-05-06T03:40:36.373Z,3.9286
2023-05-06T03:41:44.314Z,3.5429
2023-05-06T03:42:52.440Z,5.2357
2023-05-06T03:44:00.509Z,5.3643
2023-05-06T03:45:09.233Z,4.0071
2023-05-06T03:46:16.700Z,4.0500
2023-05-06T03:47:24.691Z,4.9000
2023-05-06T03:48:32.774Z,7.1071
2023-05-06T03:49:41.068Z,4.4500
2023-05-06T03:50:48.805Z,4.3429
2023-05-06T03:51:56.929Z,3.5643
2023-05-06T03:53:04.855Z,3.9357
2023-05-06T03:54:13.012Z,4.5643
2023-05-06T03:55:21.087Z,3.6143
2023-05-06T03:56:29.059Z,5.3929
2023-05-06T03:57:37.178Z,4.2500
2023-05-06T03:58:45.250Z,4.7143
2023-05-06T03:59:53.458Z,5.2143
2023-05-06T04:01:01.380Z,5.6214
2023-05-06T04:02:09.480Z,4.8357
2023-05-06T04:03:17.724Z,5.5643
2023-05-06T04:04:25.372Z,5.5143
2023-05-06T04:05:33.655Z,4.0929
2023-05-06T04:06:41.692Z,4.5500
2023-05-06T04:07:49.677Z,4.8857
2023-05-06T04:08:57.682Z,4.5000
2023-05-06T04:10:05.737Z,4.0000
2023-05-06T04:11:13.837Z,5.5500
2023-05-06T04:12:21.916Z,4.9429
2023-05-06T04:13:30.000Z,4.5857
2023-05-06T04:14:38.088Z,4.7357
2023-05-06T04:15:46.099Z,4.9571
2023-05-06T04:16:54.241Z,5.7000
2023-05-06T04:18:02.213Z,4.8429
2023-05-06T04:19:10.337Z,5.3500
2023-05-06T04:20:18.302Z,5.0786
2023-05-06T04:21:26.250Z,4.2500
2023-05-06T04:22:34.388Z,4.1429
2023-05-06T04:23:42.410Z,4.3857
2023-05-06T04:24:50.510Z,5.5786
2023-05-06T04:25:58.541Z,4.4643
2023-05-06T04:27:06.582Z,5.5571
2023-05-06T04:28:14.650Z,5.1929
2023-05-06T04:29:22.702Z,4.4000
2023-05-06T04:30:30.770Z,5.1714
2023-05-06T04:31:38.923Z,5.5071
2023-05-06T04:32:46.930Z,5.4357
2023-05-06T04:33:54.849Z,5.8786
2023-05-06T04:35:02.997Z,4.5214
2023-05-06T04:36:11.022Z,4.7929
2023-05-06T04:37:19.154Z,3.8286
2023-05-06T04:38:27.214Z,4.9786
2023-05-06T04:39:35.188Z,5.1857
2023-05-06T04:40:43.308Z,4.9500
2023-05-06T04:41:51.324Z,4.4143
2023-05-06T04:42:59.396Z,4.2071
2023-05-06T04:44:07.429Z,4.6786
2023-05-06T04:45:15.483Z,4.7357
2023-05-06T04:46:23.670Z,6.4000
2023-05-06T04:47:31.700Z,4.3214
2023-05-06T04:48:39.681Z,5.4500
2023-05-06T04:49:47.647Z,6.2143
2023-05-06T04:50:55.688Z,4.5786
2023-05-06T04:52:03.777Z,4.6786
2023-05-06T04:53:11.802Z,5.0571
2023-05-06T04:54:19.881Z,4.8429
2023-05-06T04:55:27.932Z,4.8143
2023-05-06T04:56:36.138Z,4.0286
2023-05-06T04:57:44.103Z,3.4357
2023-05-06T04:58:52.027Z,6.2143
2023-05-06T05:00:00.223Z,5.4214
2023-05-06T05:01:08.277Z,5.3929
2023-05-06T05:02:16.322Z,5.8714
2023-05-06T05:03:24.522Z,4.7500
2023-05-06T05:04:32.309Z,5.6143
2023-05-06T05:05:40.470Z,4.0571
2023-05-06T05:06:48.473Z,4.2643
2023-05-06T05:07:56.617Z,3.9357
2023-05-06T05:09:04.760Z,4.4643
2023-05-06T05:10:12.658Z,4.7429
2023-05-06T05:11:20.638Z,3.7643
2023-05-06T05:12:28.809Z,7.2214
2023-05-06T05:13:36.912Z,3.6143
2023-05-06T05:14:44.967Z,4.6929
2023-05-06T05:15:52.982Z,5.1714
2023-05-06T05:17:01.039Z,4.9286
2023-05-06T05:18:09.224Z,4.5714
2023-05-06T05:19:17.156Z,4.9643
2023-05-06T05:20:25.190Z,3.9000
2023-05-06T05:21:33.248Z,5.4571
2023-05-06T05:22:41.368Z,5.7786
2023-05-06T05:23:49.412Z,5.7429
2023-05-06T05:24:57.362Z,3.5929
2023-05-06T05:26:05.440Z,6.6571
2023-05-06T05:27:13.483Z,5.8643
2023-05-06T05:28:21.594Z,3.2071
2023-05-06T05:29:29.592Z,4.1214
2023-05-06T05:30:37.613Z,5.4357
2023-05-06T05:31:45.791Z,3.9286
2023-05-06T05:32:53.971Z,4.4714
2023-05-06T05:34:01.961Z,4.5143
2023-05-06T05:35:10.187Z,4.9714
2023-05-06T05:36:17.874Z,5.0571
2023-05-06T05:37:26.020Z,4.0857
2023-05-06T05:38:34.111Z,3.7929
2023-05-06T05:39:42.156Z,3.8071
2023-05-06T05:40:50.271Z,4.2714
2023-05-06T05:41:58.224Z,4.3071
2023-05-06T05:43:06.300Z,4.7000
2023-05-06T05:44:14.363Z,4.4643
2023-05-06T05:45:22.431Z,4.3071
2023-05-06T05:46:30.460Z,6.6071
2023-05-06T05:47:38.461Z,6.6429
2023-05-06T05:48:46.525Z,5.8000
2023-05-06T05:49:54.645Z,5.0500
2023-05-06T05:51:02.648Z,6.1714
2023-05-06T05:52:10.748Z,4.3571
2023-05-06T05:53:18.719Z,5.5286
2023-05-06T05:54:26.840Z,3.8143
2023-05-06T05:55:34.879Z,5.8786
2023-05-06T05:56:42.959Z,5.2357
2023-05-06T05:57:51.056Z,5.3000
2023-05-06T05:58:59.076Z,6.0071
2023-05-06T06:00:07.095Z,5.5071
2023-05-06T06:01:15.237Z,6.0071
2023-05-06T06:02:23.375Z,5.3143
2023-05-06T06:03:31.440Z,6.6071
2023-05-06T06:04:39.574Z,5.6143
2023-05-06T06:05:47.414Z,5.5643
2023-05-06T06:06:55.502Z,4.8071
2023-05-06T06:08:03.981Z,4.7429
2023-05-06T06:09:11.579Z,4.5143
2023-05-06T06:10:19.588Z,4.5643
2023-05-06T06:11:27.703Z,5.2214
2023-05-06T06:12:35.913Z,5.9571
2023-05-06T06:13:43.770Z,5.0500
2023-05-06T06:14:51.901Z,4.7357
2023-05-06T06:15:59.900Z,5.6571
2023-05-06T06:17:07.962Z,4.8500
2023-05-06T06:18:16.079Z,4.7214
2023-05-06T06:19:24.108Z,5.0500
2023-05-06T06:20:32.133Z,4.2286
2023-05-06T06:21:40.172Z,6.0000
2023-05-06T06:22:48.518Z,5.1571
2023-05-06T06:23:56.449Z,4.4714
2023-05-06T06:25:04.398Z,3.9071
2023-05-06T06:26:12.568Z,5.1929
2023-05-06T06:27:20.545Z,5.0143
2023-05-06T06:28:28.629Z,5.1143
2023-05-06T06:29:36.761Z,5.6000
2023-05-06T06:30:44.610Z,5.6786
2023-05-06T06:31:52.953Z,4.9929
2023-05-06T06:33:00.897Z,5.7500
2023-05-06T06:34:08.930Z,4.4857
2023-05-06T06:35:16.912Z,4.7000
2023-05-06T06:36:24.944Z,5.9643
2023-05-06T06:37:33.045Z,4.3786
2023-05-06T06:38:41.058Z,4.4429
2023-05-06T06:39:49.223Z,7.5000
2023-05-06T06:40:57.320Z,6.0643
2023-05-06T06:42:05.305Z,5.3071
2023-05-06T06:43:13.220Z,5.9357
2023-05-06T06:44:21.379Z,5.3643
2023-05-06T06:45:29.413Z,4.8071
2023-05-06T06:46:37.439Z,5.0786
2023-05-06T06:47:45.545Z,4.8714
2023-05-06T06:48:53.470Z,4.4429
2023-05-06T06:50:01.672Z,5.1357
2023-05-06T06:51:09.577Z,5.7429
2023-05-06T06:52:17.744Z,4.9357
2023-05-06T06:53:25.802Z,6.3071
2023-05-06T06:54:33.885Z,7.3786
2023-05-06T06:55:41.914Z,7.6000
2023-05-06T06:56:49.963Z,5.6643
2023-05-06T06:57:58.063Z,5.4214
2023-05-06T06:59:06.145Z,8.0643
2023-05-06T07:00:14.358Z,5.9214
2023-05-06T07:01:22.242Z,5.8857
2023-05-06T07:02:30.195Z,5.9214
2023-05-06T07:03:38.328Z,6.4643
2023-05-06T07:04:46.426Z,6.9214
2023-05-06T07:05:54.395Z,6.5643
2023-05-06T07:07:02.460Z,6.2714
2023-05-06T07:08:10.608Z,6.2786
2023-05-06T07:09:18.660Z,6.0857
2023-05-06T07:10:26.874Z,6.4786
2023-05-06T07:11:34.605Z,5.3714
2023-05-06T07:12:42.773Z,6.5786
2023-05-06T07:13:50.841Z,5.3357
2023-05-06T07:14:58.852Z,5.2429
2023-05-06T07:16:07.017Z,4.9571
2023-05-06T07:17:14.983Z,3.7143
2023-05-06T07:18:23.145Z,5.4643
2023-05-06T07:19:31.156Z,4.3786
2023-05-06T07:20:39.356Z,5.3071
2023-05-06T07:21:47.257Z,4.3286
2023-05-06T07:22:55.452Z,4.1357
2023-05-06T07:24:03.341Z,4.2714
2023-05-06T07:25:11.735Z,4.5143
2023-05-06T07:26:19.439Z,4.1357
2023-05-06T07:27:27.514Z,4.1429
2023-05-06T07:28:35.511Z,4.8214
2023-05-06T07:29:43.778Z,4.9929
2023-05-06T07:30:51.689Z,7.9143
2023-05-06T07:31:59.846Z,5.9357
2023-05-06T07:33:07.945Z,4.1000
2023-05-06T07:34:15.865Z,5.8286
2023-05-06T07:35:24.028Z,4.3357
2023-05-06T07:36:32.094Z,4.3071
2023-05-06T07:37:40.172Z,4.5857
2023-05-06T07:38:48.178Z,4.4643
2023-05-06T07:39:56.169Z,5.0429
2023-05-06T07:41:04.170Z,4.3714
2023-05-06T07:42:12.264Z,3.7071
2023-05-06T07:43:20.398Z,4.7857
2023-05-06T07:44:28.428Z,2.8786
2023-05-06T07:45:36.396Z,4.1000
2023-05-06T07:46:44.635Z,4.8500
2023-05-06T07:47:52.848Z,4.7857
2023-05-06T07:49:00.804Z,4.5929
2023-05-06T07:50:08.775Z,5.2929
2023-05-06T07:51:16.771Z,4.1214
2023-05-06T07:52:24.750Z,3.6500
2023-05-06T07:53:32.842Z,5.3500
2023-05-06T07:54:40.841Z,3.4214
2023-05-06T07:55:49.010Z,5.7429
2023-05-06T07:56:57.028Z,5.8714
2023-05-06T07:58:05.066Z,4.6214
2023-05-06T07:59:13.251Z,4.1357
2023-05-06T08:00:21.121Z,4.1429
2023-05-06T08:01:29.357Z,5.2929
2023-05-06T08:02:37.353Z,4.4857
2023-05-06T08:03:45.474Z,5.1929
2023-05-06T08:04:53.622Z,5.0571
2023-05-06T08:06:01.540Z,4.0571
2023-05-06T08:07:09.602Z,4.1214
2023-05-06T08:08:17.682Z,4.2071
2023-05-06T08:09:25.630Z,5.0143
2023-05-06T08:10:33.676Z,3.5929
2023-05-06T08:11:41.714Z,4.1714
2023-05-06T08:12:49.811Z,3.7071
2023-05-06T08:13:57.863Z,5.2286
2023-05-06T08:15:06.021Z,4.6357
2023-05-06T08:16:14.052Z,4.7786
2023-05-06T08:17:22.106Z,4.4500
2023-05-06T08:18:30.439Z,4.2214
2023-05-06T08:19:38.197Z,3.6214
2023-05-06T08:20:46.201Z,5.6429
2023-05-06T08:21:54.320Z,4.1214
2023-05-06T08:23:02.326Z,4.2929
2023-05-06T08:24:10.403Z,3.7643
2023-05-06T08:25:18.482Z,4.0714
2023-05-06T08:26:26.558Z,4.6786
2023-05-06T08:27:34.614Z,3.2571
2023-05-06T08:28:42.642Z,4.2071
2023-05-06T08:29:50.767Z,3.9357
2023-05-06T08:30:58.812Z,3.1214
2023-05-06T08:32:06.974Z,2.9571
2023-05-06T08:33:14.905Z,2.5429
2023-05-06T08:34:23.058Z,3.8500
2023-05-06T08:35:31.031Z,3.2500
2023-05-06T08:36:39.138Z,2.5000
2023-05-06T08:37:47.097Z,2.8571
2023-05-06T08:38:55.139Z,3.5071
2023-05-06T08:40:03.241Z,2.9929
2023-05-06T08:41:11.297Z,4.8429
2023-05-06T08:42:19.307Z,2.5929
2023-05-06T08:43:27.349Z,4.1714
2023-05-06T08:44:35.452Z,2.9143
2023-05-06T08:45:43.528Z,3.6000
2023-05-06T08:46:51.588Z,4.0429
2023-05-06T08:47:59.732Z,3.7857
2023-05-06T08:49:07.759Z,2.7357
2023-05-06T08:50:15.682Z,3.5786
2023-05-06T08:51:26.007Z,3.5786
2023-05-06T08:52:31.826Z,4.4286
2023-05-06T08:53:39.855Z,3.4643
2023-05-06T08:54:47.927Z,3.5429
2023-05-06T08:55:55.934Z,3.5429
2023-05-06T08:57:04.024Z,4.5786
2023-05-06T08:58:12.248Z,3.5714
2023-05-06T08:59:20.142Z,4.1786
2023-05-06T09:00:28.205Z,3.5786
2023-05-06T09:01:36.363Z,4.3143
2023-05-06T09:02:44.468Z,3.5929
2023-05-06T09:03:52.490Z,3.0786
2023-05-06T09:05:00.429Z,3.0357
2023-05-06T09:06:08.538Z,2.7786
2023-05-06T09:07:16.567Z,2.7071
2023-05-06T09:08:24.689Z,2.6357
2023-05-06T09:09:32.623Z,4.0643
2023-05-06T09:10:40.704Z,3.5071
2023-05-06T09:11:48.730Z,3.1429
2023-05-06T09:12:56.909Z,2.7357
2023-05-06T09:14:04.886Z,3.3857
2023-05-06T09:15:13.185Z,3.4357
2023-05-06T09:16:21.066Z,3.2500
2023-05-06T09:17:29.084Z,3.3000
2023-05-06T09:18:37.184Z,2.8143
2023-05-06T09:19:45.160Z,3.6643
2023-05-06T09:20:53.252Z,3.8500
2023-05-06T09:22:01.402Z,3.1214
2023-05-06T09:23:09.408Z,5.3500
2023-05-06T09:24:17.390Z,3.0143
2023-05-06T09:25:25.465Z,2.8857
2023-05-06T09:26:33.523Z,3.2286
2023-05-06T09:27:41.706Z,3.6214
2023-05-06T09:28:49.764Z,2.8286
2023-05-06T09:29:57.676Z,2.6571
2023-05-06T09:31:05.718Z,2.7286
2023-05-06T09:32:13.804Z,3.1000
2023-05-06T09:33:21.838Z,3.7500
2023-05-06T09:34:29.869Z,2.8429
2023-05-06T09:35:37.964Z,2.7643
2023-05-06T09:36:46.160Z,3.2786
2023-05-06T09:37:54.069Z,3.4286
2023-05-06T09:39:02.151Z,3.4643
2023-05-06T09:40:10.174Z,2.6000
2023-05-06T09:41:18.136Z,4.0929
2023-05-06T09:42:26.329Z,3.1929
2023-05-06T09:43:34.303Z,3.0000
2023-05-06T09:44:42.358Z,2.9429
2023-05-06T09:45:50.434Z,3.0786
2023-05-06T09:46:58.541Z,3.2143
2023-05-06T09:48:06.621Z,2.6929
2023-05-06T09:49:14.587Z,2.2143
2023-05-06T09:50:22.634Z,3.4929
2023-05-06T09:51:30.728Z,4.2929
2023-05-06T09:52:38.690Z,3.6214
2023-05-06T09:53:46.746Z,2.5000
2023-05-06T09:54:54.957Z,2.1214
2023-05-06T09:56:02.915Z,2.8214
2023-05-06T09:57:11.016Z,3.2571
2023-05-06T09:58:19.204Z,2.3786
2023-05-06T09:59:27.101Z,2.8357
2023-05-06T10:00:35.148Z,1.9286
2023-05-06T10:01:43.280Z,2.6857
2023-05-06T10:02:51.447Z,2.2929
2023-05-06T10:03:59.447Z,3.5500
2023-05-06T10:05:07.625Z,3.2571
2023-05-06T10:06:15.513Z,2.1143
2023-05-06T10:07:23.525Z,2.1786
2023-05-06T10:08:31.661Z,2.6143
2023-05-06T10:09:39.607Z,2.1857
2023-05-06T10:10:47.906Z,2.3929
2023-05-06T10:11:55.739Z,2.1929
2023-05-06T10:13:03.849Z,3.5071
2023-05-06T10:14:12.058Z,2.3500
2023-05-06T10:15:19.909Z,1.9714
2023-05-06T10:16:28.015Z,2.5429
2023-05-06T10:17:36.318Z,2.5357
2023-05-06T10:18:44.031Z,3.1857
2023-05-06T10:19:52.198Z,3.3643
2023-05-06T10:21:00.206Z,2.9500
2023-05-06T10:22:08.197Z,3.1429
2023-05-06T10:23:16.410Z,1.9929
2023-05-06T10:24:24.395Z,2.6214
2023-05-06T10:25:32.555Z,2.7857
2023-05-06T10:26:40.564Z,2.0071
2023-05-06T10:27:48.802Z,2.3857
2023-05-06T10:28:56.660Z,3.4000
2023-05-06T10:30:04.632Z,2.1429
2023-05-06T10:31:12.782Z,2.6571
2023-05-06T10:32:20.982Z,2.6429
2023-05-06T10:33:29.016Z,2.3714
2023-05-06T10:34:37.058Z,3.0571
2023-05-06T10:35:45.081Z,3.2429
2023-05-06T10:36:53.085Z,2.9643
2023-05-06T10:38:01.304Z,2.3071
2023-05-06T10:39:09.284Z,2.1500
2023-05-06T10:40:17.342Z,1.7714
2023-05-06T10:41:25.450Z,1.8714
2023-05-06T10:42:33.492Z,1.5929
2023-05-06T10:43:41.603Z,2.0929
2023-05-06T10:44:49.528Z,3.0143
2023-05-06T10:45:57.722Z,2.3714
2023-05-06T10:47:05.737Z,2.1857
2023-05-06T10:48:13.786Z,3.4571
2023-05-06T10:49:21.933Z,1.9000
2023-05-06T10:50:29.924Z,2.1286
2023-05-06T10:51:38.009Z,2.6786
2023-05-06T10:52:46.113Z,3.1786
2023-05-06T10:53:54.098Z,2.4429
2023-05-06T10:55:02.261Z,2.1500
2023-05-06T10:56:10.151Z,2.4714
2023-05-06T10:57:18.260Z,2.1857
2023-05-06T10:58:26.463Z,2.2000
2023-05-06T10:59:34.478Z,2.4714
2023-05-06T11:00:42.537Z,1.9500
2023-05-06T11:01:50.494Z,2.8000
2023-05-06T11:02:58.774Z,2.2214
2023-05-06T11:04:06.867Z,2.6857
2023-05-06T11:05:14.787Z,3.0786
2023-05-06T11:06:22.855Z,2.4786
2023-05-06T11:07:30.849Z,1.6500
2023-05-06T11:08:38.911Z,2.3357
2023-05-06T11:09:46.994Z,1.9571
2023-05-06T11:10:55.058Z,1.7286
2023-05-06T11:12:03.125Z,1.9214
2023-05-06T11:13:11.159Z,1.9143
2023-05-06T11:14:19.443Z,1.5571
2023-05-06T11:15:27.297Z,1.8857
2023-05-06T11:16:37.000Z,2.8071
2023-05-06T11:17:48.333Z,3.4000
2023-05-06T11:18:56.458Z,3.2143
2023-05-06T11:20:04.394Z,3.2714
2023-05-06T11:21:12.495Z,3.7643
2023-05-06T11:22:20.444Z,2.9000
2023-05-06T11:23:28.759Z,2.6143
2023-05-06T11:24:36.651Z,4.3786
2023-05-06T11:25:44.740Z,2.5071
2023-05-06T11:26:52.844Z,2.3357
2023-05-06T11:28:00.889Z,2.4643
2023-05-06T11:29:09.011Z,2.1429
2023-05-06T11:30:17.286Z,2.7214
2023-05-06T11:31:25.225Z,2.4643
2023-05-06T11:32:33.190Z,3.6571
2023-05-06T11:33:41.125Z,3.2714
2023-05-06T11:34:49.132Z,2.4429
2023-05-06T11:35:57.280Z,2.9571
2023-05-06T11:37:05.366Z,1.9143
2023-05-06T11:38:13.514Z,3.2857
2023-05-06T11:39:21.481Z,2.4143
2023-05-06T11:40:29.440Z,3.1571
2023-05-06T11:41:37.831Z,2.7286
2023-05-06T11:42:45.667Z,2.8357
2023-05-06T11:43:53.770Z,2.6286
2023-05-06T11:45:01.824Z,3.7357
2023-05-06T11:46:09.936Z,3.0500
2023-05-06T11:47:17.908Z,3.3714
2023-05-06T11:48:25.987Z,3.5571
2023-05-06T11:49:35.537Z,3.0429
2023-05-06T11:50:42.106Z,2.8000
2023-05-06T11:51:50.152Z,2.4714
2023-05-06T11:52:58.190Z,2.7071
2023-05-06T11:54:06.218Z,3.8143
2023-05-06T11:55:14.349Z,2.8286
2023-05-06T11:56:22.470Z,3.6643
2023-05-06T11:57:30.415Z,3.0357
2023-05-06T11:58:38.568Z,3.2643
2023-05-06T11:59:46.485Z,2.6929
2023-05-06T12:00:54.564Z,2.5714
2023-05-06T12:02:02.758Z,2.4071
2023-05-06T12:03:10.784Z,3.2714
2023-05-06T12:04:18.904Z,2.8929
2023-05-06T12:05:26.841Z,3.1571
2023-05-06T12:06:34.895Z,2.8857
2023-05-06T12:07:42.988Z,2.4500
2023-05-06T12:08:51.058Z,2.2143
2023-05-06T12:09:59.255Z,2.1929
2023-05-06T12:11:07.097Z,3.1214
2023-05-06T12:12:15.288Z,3.3429
2023-05-06T12:13:23.476Z,2.0857
2023-05-06T12:14:31.347Z,2.5643
2023-05-06T12:15:39.420Z,2.4429
2023-05-06T12:16:47.564Z,3.6357
2023-05-06T12:17:55.854Z,2.7000
2023-05-06T12:19:03.852Z,3.4714
2023-05-06T12:20:11.946Z,3.7357
2023-05-06T12:21:19.834Z,2.7786
2023-05-06T12:22:27.874Z,3.4286
2023-05-06T12:23:35.895Z,2.8714
2023-05-06T12:24:43.996Z,2.4214
2023-05-06T12:25:51.985Z,2.7500
2023-05-06T12:27:00.176Z,1.7571
2023-05-06T12:28:08.198Z,2.6357
2023-05-06T12:29:16.435Z,2.2929
2023-05-06T12:30:24.330Z,2.4000
2023-05-06T12:31:32.369Z,2.5643
2023-05-06T12:32:40.476Z,2.4500
2023-05-06T12:33:48.600Z,2.7500
2023-05-06T12:34:56.734Z,2.7214
2023-05-06T12:36:04.681Z,2.8357
2023-05-06T12:37:12.698Z,3.0571
2023-05-06T12:38:20.919Z,2.2000
2023-05-06T12:39:28.992Z,1.7643
2023-05-06T12:40:36.965Z,2.5571
2023-05-06T12:41:45.036Z,1.7786
2023-05-06T12:42:53.129Z,1.8000
2023-05-06T12:44:01.221Z,2.9286
2023-05-06T12:45:09.305Z,2.2929
2023-05-06T12:46:17.515Z,2.0643
2023-05-06T12:47:25.567Z,3.2214
2023-05-06T12:48:33.426Z,2.4571
2023-05-06T12:49:41.559Z,2.0714
2023-05-06T12:50:49.635Z,2.4357
2023-05-06T12:51:57.702Z,3.2714
2023-05-06T12:53:05.744Z,1.8500
2023-05-06T12:54:13.780Z,2.0857
2023-05-06T12:55:21.941Z,2.9286
2023-05-06T12:56:30.083Z,3.3286
2023-05-06T12:57:38.012Z,2.9857
2023-05-06T12:58:46.152Z,5.5643
2023-05-06T12:59:54.228Z,1.9214
2023-05-06T13:01:02.243Z,2.8714
2023-05-06T13:02:10.327Z,3.5571
2023-05-06T13:03:18.360Z,3.3071
2023-05-06T13:04:26.418Z,3.3786
2023-05-06T13:05:34.729Z,2.8857
2023-05-06T13:06:42.505Z,2.1357
2023-05-06T13:07:50.545Z,3.4857
2023-05-06T13:08:58.633Z,2.8643
2023-05-06T13:10:06.820Z,2.4857
2023-05-06T13:11:14.796Z,2.0571
2023-05-06T13:12:22.840Z,1.6286
2023-05-06T13:13:30.892Z,3.1071
2023-05-06T13:14:40.409Z,2.6429
2023-05-06T13:15:47.030Z,3.2714
2023-05-06T13:16:55.156Z,1.8214
2023-05-06T13:18:03.366Z,2.2214
2023-05-06T13:19:21.268Z,4.3286
2023-05-06T13:20:24.226Z,3.9267
2023-05-06T13:21:32.176Z,2.4071
2023-05-06T13:22:53.158Z,3.4357
2023-05-06T13:23:53.193Z,3.4533
2023-05-06T13:25:01.427Z,2.4786
2023-05-06T13:26:09.352Z,2.4071
2023-05-06T13:27:17.472Z,2.7286
2023-05-06T13:28:25.777Z,3.2857
2023-05-06T13:29:33.492Z,2.8071
2023-05-06T13:30:41.795Z,3.8643
2023-05-06T13:31:49.698Z,2.5357
2023-05-06T13:32:57.786Z,3.4143
2023-05-06T13:34:05.932Z,3.2714
2023-05-06T13:35:13.864Z,1.8857
2023-05-06T13:36:21.897Z,2.2000
2023-05-06T13:37:30.094Z,4.1429
2023-05-06T13:38:38.087Z,3.6143
2023-05-06T13:39:46.229Z,3.4000
2023-05-06T13:40:54.158Z,3.4000
2023-05-06T13:42:02.259Z,2.3929
2023-05-06T13:43:10.331Z,2.7143
2023-05-06T13:44:18.476Z,2.6500
2023-05-06T13:45:26.584Z,2.8429
2023-05-06T13:46:34.686Z,3.3857
2023-05-06T13:47:42.657Z,4.0214
2023-05-06T13:48:50.719Z,2.4786
2023-05-06T13:49:58.795Z,1.8500
2023-05-06T13:51:06.877Z,3.1429
2023-05-06T13:52:14.869Z,2.5786
2023-05-06T13:53:23.173Z,3.2357
2023-05-06T13:54:31.083Z,2.6286
2023-05-06T13:55:39.077Z,1.9857
2023-05-06T13:56:47.174Z,2.9929
2023-05-06T13:57:55.216Z,2.7643
2023-05-06T13:59:03.284Z,5.1714
2023-05-06T14:00:11.420Z,2.5286
2023-05-06T14:01:19.520Z,1.9429
2023-05-06T14:02:27.698Z,2.4643
2023-05-06T14:03:35.632Z,2.3643
2023-05-06T14:04:43.692Z,3.3714
2023-05-06T14:05:51.782Z,3.0571
2023-05-06T14:06:59.717Z,2.9000
2023-05-06T14:08:07.945Z,3.6143
2023-05-06T14:09:15.963Z,5.7357